createdAt,value
2023-04-10T00:00:30.914Z,82.46
2023-04-10T00:01:35.796Z,82.44
2023-04-10T00:02:38.440Z,82.08
2023-04-10T00:03:41.574Z,81.74
2023-04-10T00:04:44.159Z,81.41
2023-04-10T00:05:46.638Z,81.13
2023-04-10T00:06:49.180Z,81.08
2023-04-10T00:07:51.664Z,80.65
2023-04-10T00:08:53.881Z,80.21
2023-04-10T00:09:56.054Z,79.90
2023-04-10T00:10:58.263Z,79.79
2023-04-10T00:12:00.821Z,79.67
2023-04-10T00:13:04.815Z,79.71
2023-04-10T00:14:07.062Z,79.44
2023-04-10T00:15:10.002Z,80.43
2023-04-10T00:16:12.247Z,80.54
2023-04-10T00:17:14.504Z,80.43
2023-04-10T00:18:16.883Z,80.45
2023-04-10T00:19:19.055Z,80.50
2023-04-10T00:20:23.071Z,80.61
2023-04-10T00:21:26.388Z,80.85
2023-04-10T00:22:28.553Z,80.78
2023-04-10T00:23:34.746Z,80.31
2023-04-10T00:24:37.208Z,80.37
2023-04-10T00:25:39.425Z,80.46
2023-04-10T00:26:41.658Z,80.49
2023-04-10T00:27:43.843Z,80.12
2023-04-10T00:28:46.222Z,80.12
2023-04-10T00:29:48.768Z,79.72
2023-04-10T00:30:51.106Z,79.74
2023-04-10T00:31:53.475Z,79.75
2023-04-10T00:32:56.025Z,79.82
2023-04-10T00:33:58.291Z,79.99
2023-04-10T00:35:00.781Z,80.28
2023-04-10T00:36:02.990Z,80.43
2023-04-10T00:37:05.217Z,80.85
2023-04-10T00:38:10.184Z,81.13
2023-04-10T00:39:12.912Z,81.31
2023-04-10T00:40:18.949Z,81.53
2023-04-10T00:41:21.192Z,81.77
2023-04-10T00:42:23.486Z,81.85
2023-04-10T00:43:25.873Z,82.00
2023-04-10T00:44:28.393Z,82.02
2023-04-10T00:45:31.172Z,81.80
2023-04-10T00:46:35.343Z,82.00
2023-04-10T00:47:38.279Z,81.78
2023-04-10T00:48:40.881Z,81.85
2023-04-10T00:49:43.807Z,81.46
2023-04-10T00:50:47.013Z,81.08
2023-04-10T00:51:49.802Z,80.93
2023-04-10T00:52:52.736Z,80.71
2023-04-10T00:53:55.493Z,80.24
2023-04-10T00:54:58.932Z,80.07
2023-04-10T00:56:02.364Z,80.12
2023-04-10T00:57:04.963Z,79.82
2023-04-10T00:58:07.316Z,79.50
2023-04-10T00:59:09.692Z,79.78
2023-04-10T01:00:14.550Z,79.71
2023-04-10T01:01:16.976Z,80.01
2023-04-10T01:02:20.337Z,80.33
2023-04-10T01:03:23.819Z,80.79
2023-04-10T01:04:28.823Z,81.21
2023-04-10T01:05:42.307Z,81.42
2023-04-10T01:07:05.426Z,81.61
2023-04-10T01:08:28.643Z,81.81
2023-04-10T01:09:51.561Z,81.89
2023-04-10T01:11:07.115Z,82.04
2023-04-10T01:12:36.630Z,81.70
2023-04-10T01:13:49.939Z,82.09
2023-04-10T01:15:20.218Z,82.13
2023-04-10T01:16:31.751Z,82.33
2023-04-10T01:17:40.458Z,82.44
2023-04-10T01:18:57.345Z,82.63
2023-04-10T01:20:19.269Z,82.74
2023-04-10T01:21:22.738Z,82.74
2023-04-10T01:22:34.010Z,82.56
2023-04-10T01:23:51.850Z,82.53
2023-04-10T01:25:02.422Z,82.43
2023-04-10T01:26:07.538Z,82.41
2023-04-10T01:27:40.445Z,81.89
2023-04-10T01:29:04.226Z,82.07
2023-04-10T01:30:12.133Z,82.05
2023-04-10T01:31:38.185Z,81.94
2023-04-10T01:32:41.762Z,81.93
2023-04-10T01:33:48.440Z,81.82
2023-04-10T01:34:57.391Z,81.50
2023-04-10T01:36:05.168Z,81.35
2023-04-10T01:37:21.027Z,81.31
2023-04-10T01:38:26.757Z,81.05
2023-04-10T01:39:31.335Z,81.10
2023-04-10T01:40:39.780Z,80.65
2023-04-10T01:41:44.739Z,80.58
2023-04-10T01:42:53.154Z,80.64
2023-04-10T01:44:00.236Z,80.61
2023-04-10T01:45:04.951Z,80.50
2023-04-10T01:46:07.667Z,80.53
2023-04-10T01:47:10.124Z,80.58
2023-04-10T01:48:12.772Z,80.29
2023-04-10T01:49:16.140Z,80.24
2023-04-10T01:50:23.408Z,80.11
2023-04-10T01:51:27.870Z,80.00
2023-04-10T01:52:33.037Z,79.67
2023-04-10T01:53:45.798Z,79.54
2023-04-10T01:54:49.713Z,79.76
2023-04-10T01:55:59.137Z,80.13
2023-04-10T01:57:04.439Z,80.26
2023-04-10T01:58:15.648Z,80.46
2023-04-10T01:59:18.381Z,80.71
2023-04-10T02:00:20.878Z,80.51
2023-04-10T02:01:29.798Z,80.63
2023-04-10T02:02:34.353Z,81.04
2023-04-10T02:03:37.197Z,81.31
2023-04-10T02:04:39.919Z,81.47
2023-04-10T02:05:51.470Z,81.50
2023-04-10T02:07:07.143Z,81.42
2023-04-10T02:08:15.733Z,81.30
2023-04-10T02:09:25.839Z,81.21
2023-04-10T02:10:44.888Z,81.19
2023-04-10T02:12:02.190Z,81.32
2023-04-10T02:13:07.460Z,81.59
2023-04-10T02:14:14.957Z,81.91
2023-04-10T02:15:23.645Z,81.86
2023-04-10T02:16:27.775Z,81.68
2023-04-10T02:17:31.558Z,81.46
2023-04-10T02:18:35.861Z,81.36
2023-04-10T02:19:40.054Z,81.10
2023-04-10T02:20:42.538Z,81.15
2023-04-10T02:21:45.403Z,81.24
2023-04-10T02:22:49.014Z,81.14
2023-04-10T02:23:51.991Z,80.91
2023-04-10T02:24:54.919Z,81.09
2023-04-10T02:25:58.560Z,81.61
2023-04-10T02:27:01.642Z,82.19
2023-04-10T02:28:07.980Z,83.16
2023-04-10T02:29:10.662Z,82.79
2023-04-10T02:30:12.938Z,82.95
2023-04-10T02:31:16.802Z,82.91
2023-04-10T02:32:19.347Z,82.99
2023-04-10T02:33:21.953Z,82.94
2023-04-10T02:34:24.348Z,82.70
2023-04-10T02:35:27.242Z,82.32
2023-04-10T02:36:29.829Z,82.44
2023-04-10T02:37:33.251Z,82.17
2023-04-10T02:38:37.574Z,81.79
2023-04-10T02:39:40.627Z,81.53
2023-04-10T02:40:43.741Z,81.24
2023-04-10T02:41:50.485Z,80.96
2023-04-10T02:42:53.232Z,80.72
2023-04-10T02:43:55.620Z,80.96
2023-04-10T02:45:02.183Z,81.08
2023-04-10T02:46:10.351Z,80.70
2023-04-10T02:47:16.032Z,80.65
2023-04-10T02:48:21.631Z,80.23
2023-04-10T02:49:29.933Z,80.68
2023-04-10T02:50:33.813Z,80.34
2023-04-10T02:51:37.188Z,79.39
2023-04-10T02:52:40.684Z,78.89
2023-04-10T02:53:43.202Z,78.97
2023-04-10T02:54:49.594Z,78.49
2023-04-10T02:55:54.223Z,77.90
2023-04-10T02:57:00.198Z,77.77
2023-04-10T02:58:03.059Z,78.14
2023-04-10T02:59:05.352Z,78.25
2023-04-10T03:00:10.042Z,78.05
2023-04-10T03:01:31.196Z,78.04
2023-04-10T03:02:34.108Z,78.50
2023-04-10T03:03:44.055Z,79.02
2023-04-10T03:04:48.551Z,80.31
2023-04-10T03:05:51.106Z,81.19
2023-04-10T03:06:59.474Z,81.62
2023-04-10T03:08:01.849Z,81.40
2023-04-10T03:09:04.623Z,81.88
2023-04-10T03:10:08.893Z,82.56
2023-04-10T03:11:12.292Z,83.16
2023-04-10T03:12:14.537Z,83.07
2023-04-10T03:13:16.972Z,83.14
2023-04-10T03:14:19.765Z,83.16
2023-04-10T03:15:22.545Z,82.96
2023-04-10T03:16:25.252Z,82.80
2023-04-10T03:17:27.973Z,82.39
2023-04-10T03:18:31.957Z,82.39
2023-04-10T03:19:34.167Z,83.07
2023-04-10T03:20:40.062Z,82.71
2023-04-10T03:21:42.472Z,82.75
2023-04-10T03:22:44.809Z,82.57
2023-04-10T03:23:47.103Z,82.56
2023-04-10T03:24:49.371Z,82.90
2023-04-10T03:25:54.095Z,83.12
2023-04-10T03:26:59.596Z,82.94
2023-04-10T03:28:01.821Z,82.76
2023-04-10T03:29:04.672Z,82.53
2023-04-10T03:30:07.849Z,82.45
2023-04-10T03:31:15.681Z,82.22
2023-04-10T03:32:19.893Z,82.19
2023-04-10T03:33:22.784Z,82.11
2023-04-10T03:34:25.650Z,82.10
2023-04-10T03:35:28.244Z,82.01
2023-04-10T03:36:30.905Z,82.39
2023-04-10T03:37:33.672Z,82.34
2023-04-10T03:38:35.942Z,82.27
2023-04-10T03:39:38.906Z,82.68
2023-04-10T03:40:41.324Z,82.85
2023-04-10T03:41:46.218Z,82.67
2023-04-10T03:42:49.188Z,82.88
2023-04-10T03:43:51.449Z,82.97
2023-04-10T03:44:53.993Z,83.12
2023-04-10T03:45:56.405Z,83.48
2023-04-10T03:46:59.700Z,83.74
2023-04-10T03:48:02.458Z,83.88
2023-04-10T03:49:14.328Z,83.94
2023-04-10T03:50:16.793Z,84.37
2023-04-10T03:51:27.689Z,84.20
2023-04-10T03:52:30.047Z,83.88
2023-04-10T03:53:36.346Z,83.28
2023-04-10T03:54:43.027Z,82.75
2023-04-10T03:55:57.002Z,82.43
2023-04-10T03:57:01.535Z,82.44
2023-04-10T03:58:04.320Z,82.19
2023-04-10T03:59:07.154Z,82.06
2023-04-10T04:00:16.203Z,81.67
2023-04-10T04:01:24.450Z,81.31
2023-04-10T04:02:37.615Z,81.44
2023-04-10T04:03:40.328Z,81.29
2023-04-10T04:05:21.222Z,81.24
2023-04-10T04:06:43.368Z,81.40
2023-04-10T04:08:06.773Z,81.21
2023-04-10T04:09:14.796Z,81.59
2023-04-10T04:10:25.527Z,81.43
2023-04-10T04:11:46.945Z,81.16
2023-04-10T04:13:09.617Z,81.37
2023-04-10T04:14:28.845Z,81.86
2023-04-10T04:15:49.906Z,82.33
2023-04-10T04:16:59.996Z,82.65
2023-04-10T04:18:28.695Z,82.53
2023-04-10T04:19:49.594Z,82.57
2023-04-10T04:21:10.350Z,83.81
2023-04-10T04:22:31.961Z,84.05
2023-04-10T04:23:34.337Z,83.83
2023-04-10T04:25:02.355Z,83.87
2023-04-10T04:26:21.419Z,83.45
2023-04-10T04:27:42.196Z,83.71
2023-04-10T04:29:03.270Z,83.37
2023-04-10T04:30:14.305Z,83.22
2023-04-10T04:31:38.427Z,83.34
2023-04-10T04:33:09.852Z,83.30
2023-04-10T04:34:38.428Z,83.47
2023-04-10T04:35:57.064Z,83.74
2023-04-10T04:37:11.631Z,83.89
2023-04-10T04:38:22.846Z,84.31
2023-04-10T04:39:36.141Z,84.67
2023-04-10T04:40:56.759Z,84.80
2023-04-10T04:42:18.536Z,84.82
2023-04-10T04:43:23.857Z,84.93
2023-04-10T04:44:36.606Z,85.06
2023-04-10T04:46:05.367Z,85.00
2023-04-10T04:47:45.527Z,85.05
2023-04-10T04:49:01.215Z,85.09
2023-04-10T04:50:12.115Z,85.01
2023-04-10T04:51:29.774Z,84.97
2023-04-10T04:52:40.724Z,85.16
2023-04-10T04:54:01.325Z,85.14
2023-04-10T04:55:41.907Z,84.96
2023-04-10T04:57:07.216Z,84.90
2023-04-10T04:58:27.953Z,85.12
2023-04-10T04:59:46.464Z,84.65
2023-04-10T05:01:07.986Z,84.42
2023-04-10T05:02:30.388Z,84.47
2023-04-10T05:03:51.899Z,84.12
2023-04-10T05:05:10.241Z,83.91
2023-04-10T05:06:20.606Z,83.55
2023-04-10T05:07:42.937Z,83.46
2023-04-10T05:08:52.994Z,83.56
2023-04-10T05:10:16.104Z,83.35
2023-04-10T05:11:54.487Z,83.38
2023-04-10T05:13:23.230Z,83.25
2023-04-10T05:14:46.598Z,83.16
2023-04-10T05:16:11.864Z,83.41
2023-04-10T05:17:40.321Z,83.45
2023-04-10T05:19:08.890Z,83.59
2023-04-10T05:20:31.685Z,83.63
2023-04-10T05:21:54.296Z,83.76
2023-04-10T05:22:59.778Z,83.47
2023-04-10T05:24:20.348Z,83.20
2023-04-10T05:25:45.589Z,83.11
2023-04-10T05:26:58.359Z,83.37
2023-04-10T05:28:07.682Z,83.30
2023-04-10T05:29:29.700Z,83.04
2023-04-10T05:31:01.264Z,82.70
2023-04-10T05:32:21.894Z,82.57
2023-04-10T05:33:47.003Z,82.50
2023-04-10T05:35:12.262Z,82.63
2023-04-10T05:36:47.008Z,82.91
2023-04-10T05:38:12.639Z,82.87
2023-04-10T05:39:24.484Z,82.91
2023-04-10T05:40:45.897Z,82.91
2023-04-10T05:42:06.453Z,82.88
2023-04-10T05:43:22.090Z,82.90
2023-04-10T05:44:47.211Z,83.07
2023-04-10T05:46:13.881Z,82.79
2023-04-10T05:47:26.949Z,82.09
2023-04-10T05:48:47.421Z,81.85
2023-04-10T05:50:12.602Z,81.81
2023-04-10T05:51:29.040Z,82.36
2023-04-10T05:52:55.229Z,82.60
2023-04-10T05:54:19.433Z,83.60
2023-04-10T05:55:24.789Z,83.86
2023-04-10T05:56:31.557Z,83.49
2023-04-10T05:57:54.406Z,82.42
2023-04-10T05:58:56.728Z,81.65
2023-04-10T06:00:27.985Z,81.12
2023-04-10T06:01:48.788Z,80.73
2023-04-10T06:02:51.338Z,80.55
2023-04-10T06:04:00.396Z,80.14
2023-04-10T06:05:02.970Z,79.70
2023-04-10T06:06:08.366Z,79.07
2023-04-10T06:07:10.731Z,78.68
2023-04-10T06:08:13.148Z,79.33
2023-04-10T06:09:15.368Z,79.47
2023-04-10T06:10:17.758Z,79.52
2023-04-10T06:11:20.173Z,79.58
2023-04-10T06:12:26.827Z,79.84
2023-04-10T06:13:29.362Z,80.01
2023-04-10T06:14:35.048Z,80.04
2023-04-10T06:15:37.498Z,80.66
2023-04-10T06:16:39.745Z,80.36
2023-04-10T06:17:46.342Z,79.97
2023-04-10T06:18:48.578Z,79.58
2023-04-10T06:19:50.950Z,79.25
2023-04-10T06:20:53.521Z,78.54
2023-04-10T06:21:55.815Z,77.61
2023-04-10T06:22:59.584Z,77.01
2023-04-10T06:24:02.374Z,76.30
2023-04-10T06:25:05.480Z,76.44
2023-04-10T06:26:07.936Z,76.05
2023-04-10T06:27:10.376Z,75.78
2023-04-10T06:28:12.701Z,75.31
2023-04-10T06:29:17.411Z,76.58
2023-04-10T06:30:19.866Z,76.76
2023-04-10T06:31:22.912Z,75.82
2023-04-10T06:32:25.771Z,75.24
2023-04-10T06:33:28.047Z,74.95
2023-04-10T06:34:30.272Z,75.69
2023-04-10T06:35:37.632Z,76.35
2023-04-10T06:36:40.932Z,76.23
2023-04-10T06:37:43.686Z,76.08
2023-04-10T06:38:47.346Z,76.11
2023-04-10T06:39:49.527Z,76.62
2023-04-10T06:40:51.688Z,76.58
2023-04-10T06:41:54.309Z,76.12
2023-04-10T06:43:17.774Z,76.40
2023-04-10T06:44:20.244Z,76.19
2023-04-10T06:45:23.133Z,76.36
2023-04-10T06:46:28.051Z,76.43
2023-04-10T06:47:31.686Z,76.39
2023-04-10T06:48:34.142Z,76.41
2023-04-10T06:49:36.470Z,76.47
2023-04-10T06:50:38.790Z,76.51
2023-04-10T06:51:41.207Z,76.17
2023-04-10T06:52:45.384Z,76.36
2023-04-10T06:53:47.674Z,77.56
2023-04-10T06:54:50.364Z,77.55
2023-04-10T06:55:52.784Z,77.58
2023-04-10T06:56:58.923Z,78.92
2023-04-10T06:58:01.775Z,79.73
2023-04-10T06:59:04.118Z,79.88
2023-04-10T07:00:07.500Z,79.68
2023-04-10T07:01:09.755Z,79.40
2023-04-10T07:02:12.067Z,79.08
2023-04-10T07:03:14.583Z,79.29
2023-04-10T07:04:16.956Z,79.29
2023-04-10T07:05:19.231Z,78.78
2023-04-10T07:06:21.730Z,78.68
2023-04-10T07:07:24.310Z,78.39
2023-04-10T07:08:26.707Z,78.58
2023-04-10T07:09:30.645Z,78.39
2023-04-10T07:10:32.888Z,77.91
2023-04-10T07:11:35.392Z,77.71
2023-04-10T07:12:37.560Z,76.99
2023-04-10T07:13:40.189Z,76.88
2023-04-10T07:14:43.053Z,76.87
2023-04-10T07:15:45.362Z,76.49
2023-04-10T07:16:48.725Z,76.12
2023-04-10T07:17:51.215Z,76.60
2023-04-10T07:18:53.927Z,76.62
2023-04-10T07:19:56.480Z,77.56
2023-04-10T07:20:58.889Z,79.18
2023-04-10T07:22:01.436Z,79.94
2023-04-10T07:23:03.646Z,79.76
2023-04-10T07:24:05.856Z,79.00
2023-04-10T07:25:08.596Z,79.80
2023-04-10T07:26:11.092Z,79.75
2023-04-10T07:27:13.294Z,79.44
2023-04-10T07:28:15.717Z,78.88
2023-04-10T07:29:18.409Z,78.90
2023-04-10T07:30:21.020Z,79.66
2023-04-10T07:31:23.903Z,79.54
2023-04-10T07:32:26.425Z,78.51
2023-04-10T07:33:29.201Z,77.17
2023-04-10T07:34:31.897Z,76.42
2023-04-10T07:35:34.387Z,76.16
2023-04-10T07:36:36.587Z,76.49
2023-04-10T07:37:39.839Z,75.89
2023-04-10T07:38:42.705Z,75.31
2023-04-10T07:39:45.279Z,74.40
2023-04-10T07:40:47.794Z,73.78
2023-04-10T07:41:49.994Z,73.67
2023-04-10T07:42:53.871Z,74.86
2023-04-10T07:43:56.418Z,75.40
2023-04-10T07:44:58.612Z,74.79
2023-04-10T07:46:00.863Z,74.47
2023-04-10T07:47:04.010Z,74.59
2023-04-10T07:48:06.852Z,74.96
2023-04-10T07:49:09.257Z,75.43
2023-04-10T07:50:11.519Z,75.49
2023-04-10T07:51:14.271Z,75.71
2023-04-10T07:52:16.843Z,76.37
2023-04-10T07:53:19.225Z,76.67
2023-04-10T07:54:21.515Z,76.04
2023-04-10T07:55:23.762Z,75.94
2023-04-10T07:56:26.260Z,75.95
2023-04-10T07:57:28.549Z,75.71
2023-04-10T07:58:31.987Z,75.65
2023-04-10T07:59:34.389Z,75.60
2023-04-10T08:00:37.193Z,75.64
2023-04-10T08:01:39.717Z,75.81
2023-04-10T08:02:42.958Z,75.77
2023-04-10T08:03:47.517Z,75.67
2023-04-10T08:04:50.285Z,75.76
2023-04-10T08:05:53.035Z,75.44
2023-04-10T08:06:56.117Z,75.31
2023-04-10T08:07:59.215Z,75.13
2023-04-10T08:09:02.111Z,74.36
2023-04-10T08:10:04.846Z,73.98
2023-04-10T08:11:28.076Z,74.03
2023-04-10T08:12:33.992Z,74.25
2023-04-10T08:13:36.187Z,74.17
2023-04-10T08:14:38.550Z,73.64
2023-04-10T08:15:40.934Z,73.07
2023-04-10T08:16:43.583Z,73.17
2023-04-10T08:17:46.140Z,72.61
2023-04-10T08:18:48.528Z,72.46
2023-04-10T08:19:51.008Z,72.10
2023-04-10T08:20:53.217Z,72.11
2023-04-10T08:21:55.499Z,71.37
2023-04-10T08:23:03.113Z,71.44
2023-04-10T08:24:14.964Z,71.14
2023-04-10T08:25:17.422Z,70.98
2023-04-10T08:26:19.782Z,70.85
2023-04-10T08:27:22.232Z,71.15
2023-04-10T08:28:24.440Z,70.80
2023-04-10T08:29:26.609Z,70.82
2023-04-10T08:30:28.853Z,70.23
2023-04-10T08:31:31.471Z,69.66
2023-04-10T08:32:34.156Z,68.86
2023-04-10T08:33:36.580Z,70.46
2023-04-10T08:34:39.299Z,70.78
2023-04-10T08:35:41.772Z,70.76
2023-04-10T08:36:44.035Z,70.17
2023-04-10T08:37:49.735Z,69.61
2023-04-10T08:38:56.279Z,69.15
2023-04-10T08:39:58.994Z,68.30
2023-04-10T08:41:01.316Z,68.17
2023-04-10T08:42:03.849Z,68.47
2023-04-10T08:43:06.260Z,68.45
2023-04-10T08:44:08.652Z,67.89
2023-04-10T08:45:11.337Z,68.29
2023-04-10T08:46:15.006Z,67.95
2023-04-10T08:47:21.203Z,68.07
2023-04-10T08:48:31.177Z,68.29
2023-04-10T08:49:58.124Z,68.13
2023-04-10T08:51:04.354Z,68.50
2023-04-10T08:52:09.713Z,68.12
2023-04-10T08:53:14.589Z,67.83
2023-04-10T08:54:27.616Z,67.29
2023-04-10T08:55:30.230Z,66.80
2023-04-10T08:56:33.421Z,66.47
2023-04-10T08:57:39.105Z,66.28
2023-04-10T08:58:43.847Z,66.01
2023-04-10T08:59:46.733Z,66.01
2023-04-10T09:00:49.221Z,65.69
2023-04-10T09:01:51.525Z,65.40
2023-04-10T09:02:58.101Z,65.20
2023-04-10T09:04:01.098Z,64.96
2023-04-10T09:05:04.887Z,64.77
2023-04-10T09:06:07.713Z,65.06
2023-04-10T09:07:10.184Z,64.46
2023-04-10T09:08:15.366Z,64.32
2023-04-10T09:09:17.770Z,63.89
2023-04-10T09:10:20.029Z,63.33
2023-04-10T09:11:22.721Z,62.89
2023-04-10T09:12:24.903Z,62.43
2023-04-10T09:13:43.945Z,62.96
2023-04-10T09:14:46.219Z,62.73
2023-04-10T09:16:01.472Z,62.06
2023-04-10T09:17:25.323Z,61.10
2023-04-10T09:18:40.755Z,60.50
2023-04-10T09:19:45.034Z,59.63
2023-04-10T09:20:51.579Z,58.92
2023-04-10T09:21:54.050Z,59.25
2023-04-10T09:22:56.436Z,58.72
2023-04-10T09:24:01.521Z,57.92
2023-04-10T09:25:04.541Z,57.67
2023-04-10T09:26:28.439Z,57.86
2023-04-10T09:27:35.867Z,58.57
2023-04-10T09:28:56.547Z,58.86
2023-04-10T09:29:59.378Z,59.34
2023-04-10T09:31:01.741Z,59.64
2023-04-10T09:32:04.436Z,59.15
2023-04-10T09:33:30.472Z,58.77
2023-04-10T09:34:32.897Z,57.97
2023-04-10T09:35:38.102Z,58.04
2023-04-10T09:36:45.040Z,57.39
2023-04-10T09:37:47.354Z,56.85
2023-04-10T09:38:52.052Z,56.65
2023-04-10T09:39:54.253Z,56.31
2023-04-10T09:41:07.655Z,56.04
2023-04-10T09:42:11.777Z,56.32
2023-04-10T09:43:32.472Z,56.83
2023-04-10T09:44:37.387Z,57.84
2023-04-10T09:45:52.056Z,57.48
2023-04-10T09:46:54.759Z,56.78
2023-04-10T09:48:06.277Z,57.26
2023-04-10T09:49:09.468Z,57.26
2023-04-10T09:50:11.720Z,56.37
2023-04-10T09:51:31.421Z,55.96
2023-04-10T09:52:35.388Z,55.68
2023-04-10T09:53:57.899Z,55.22
2023-04-10T09:55:02.922Z,55.20
2023-04-10T09:56:06.791Z,54.75
2023-04-10T09:57:10.016Z,54.76
2023-04-10T09:58:13.422Z,57.08
2023-04-10T09:59:16.402Z,56.98
2023-04-10T10:00:18.972Z,57.03
2023-04-10T10:01:21.953Z,56.41
2023-04-10T10:02:26.593Z,56.47
2023-04-10T10:03:29.436Z,56.55
2023-04-10T10:04:33.133Z,57.41
2023-04-10T10:05:38.560Z,56.98
2023-04-10T10:06:41.039Z,56.54
2023-04-10T10:07:44.876Z,56.04
2023-04-10T10:08:48.390Z,56.28
2023-04-10T10:09:52.803Z,56.24
2023-04-10T10:10:59.111Z,56.04
2023-04-10T10:12:03.234Z,55.57
2023-04-10T10:13:08.256Z,55.53
2023-04-10T10:14:17.878Z,55.86
2023-04-10T10:15:32.454Z,54.88
2023-04-10T10:16:39.652Z,54.66
2023-04-10T10:18:03.763Z,54.39
2023-04-10T10:19:11.829Z,53.95
2023-04-10T10:20:18.176Z,54.26
2023-04-10T10:21:21.285Z,55.37
2023-04-10T10:22:26.319Z,55.29
2023-04-10T10:23:29.154Z,55.37
2023-04-10T10:24:32.148Z,54.38
2023-04-10T10:25:38.852Z,54.01
2023-04-10T10:26:43.256Z,53.52
2023-04-10T10:27:48.082Z,53.19
2023-04-10T10:28:54.859Z,53.86
2023-04-10T10:30:02.895Z,53.80
2023-04-10T10:31:08.203Z,53.09
2023-04-10T10:32:13.169Z,53.17
2023-04-10T10:33:15.532Z,53.54
2023-04-10T10:34:18.682Z,52.79
2023-04-10T10:35:22.411Z,53.29
2023-04-10T10:36:27.334Z,54.25
2023-04-10T10:37:30.234Z,54.03
2023-04-10T10:38:32.841Z,53.25
2023-04-10T10:39:47.862Z,53.19
2023-04-10T10:41:11.466Z,52.96
2023-04-10T10:42:21.414Z,52.25
2023-04-10T10:43:38.097Z,52.13
2023-04-10T10:44:52.841Z,53.10
2023-04-10T10:46:09.342Z,53.54
2023-04-10T10:47:18.813Z,54.63
2023-04-10T10:48:21.249Z,54.69
2023-04-10T10:49:55.781Z,54.53
2023-04-10T10:51:00.562Z,54.44
2023-04-10T10:52:02.801Z,54.57
2023-04-10T10:53:05.001Z,54.14
2023-04-10T10:54:27.838Z,53.73
2023-04-10T10:55:39.707Z,53.55
2023-04-10T10:56:42.074Z,52.33
2023-04-10T10:57:48.346Z,52.19
2023-04-10T10:58:53.319Z,52.98
2023-04-10T10:59:56.782Z,53.84
2023-04-10T11:01:07.186Z,54.50
2023-04-10T11:02:16.482Z,54.57
2023-04-10T11:03:19.170Z,54.57
2023-04-10T11:04:46.799Z,54.76
2023-04-10T11:06:06.394Z,55.29
2023-04-10T11:07:08.623Z,53.94
2023-04-10T11:08:10.982Z,54.65
2023-04-10T11:09:52.521Z,53.57
2023-04-10T11:11:05.813Z,53.54
2023-04-10T11:12:08.358Z,53.66
2023-04-10T11:13:18.474Z,53.89
2023-04-10T11:14:21.448Z,54.35
2023-04-10T11:15:25.360Z,54.37
2023-04-10T11:16:31.754Z,53.59
2023-04-10T11:18:06.144Z,51.51
2023-04-10T11:19:14.761Z,51.16
2023-04-10T11:20:20.876Z,51.77
2023-04-10T11:21:23.901Z,51.45
2023-04-10T11:22:27.791Z,50.73
2023-04-10T11:23:30.090Z,50.17
2023-04-10T11:24:53.356Z,49.63
2023-04-10T11:25:55.908Z,49.80
2023-04-10T11:26:58.686Z,49.42
2023-04-10T11:28:01.795Z,47.69
2023-04-10T11:29:27.039Z,48.60
2023-04-10T11:30:31.375Z,46.61
2023-04-10T11:31:34.404Z,47.51
2023-04-10T11:32:46.555Z,47.64
2023-04-10T11:34:03.358Z,47.55
2023-04-10T11:35:06.351Z,47.38
2023-04-10T11:36:08.566Z,46.59
2023-04-10T11:37:22.952Z,45.66
2023-04-10T11:38:25.611Z,45.20
2023-04-10T11:39:27.914Z,45.45
2023-04-10T11:40:30.275Z,45.58
2023-04-10T11:41:34.264Z,46.83
2023-04-10T11:42:36.742Z,47.48
2023-04-10T11:43:39.446Z,47.22
2023-04-10T11:44:43.235Z,47.52
2023-04-10T11:45:45.480Z,47.42
2023-04-10T11:46:48.085Z,47.95
2023-04-10T11:47:54.425Z,46.73
2023-04-10T11:49:01.554Z,47.02
2023-04-10T11:50:03.829Z,46.86
2023-04-10T11:51:14.006Z,45.65
2023-04-10T11:52:25.776Z,45.47
2023-04-10T11:53:30.321Z,44.79
2023-04-10T11:54:32.789Z,46.08
2023-04-10T11:55:39.113Z,47.28
2023-04-10T11:56:43.139Z,48.04
2023-04-10T11:57:46.154Z,48.24
2023-04-10T11:58:54.321Z,48.26
2023-04-10T11:59:57.248Z,48.33
2023-04-10T12:01:01.621Z,48.75
2023-04-10T12:02:11.802Z,48.33
2023-04-10T12:03:14.511Z,47.22
2023-04-10T12:04:18.762Z,47.23
2023-04-10T12:05:21.245Z,47.11
2023-04-10T12:06:24.206Z,46.67
2023-04-10T12:07:30.295Z,46.34
2023-04-10T12:08:36.514Z,46.34
2023-04-10T12:09:38.943Z,46.08
2023-04-10T12:10:47.717Z,46.23
2023-04-10T12:11:52.081Z,45.91
2023-04-10T12:12:54.238Z,46.15
2023-04-10T12:13:57.859Z,46.42
2023-04-10T12:15:00.229Z,47.38
2023-04-10T12:16:06.517Z,47.17
2023-04-10T12:17:11.139Z,46.58
2023-04-10T12:18:13.578Z,45.07
2023-04-10T12:19:19.972Z,44.61
2023-04-10T12:20:26.532Z,44.56
2023-04-10T12:21:28.870Z,44.81
2023-04-10T12:22:31.544Z,45.26
2023-04-10T12:23:36.998Z,45.21
2023-04-10T12:24:43.540Z,45.37
2023-04-10T12:25:45.754Z,45.32
2023-04-10T12:26:49.742Z,43.87
2023-04-10T12:27:52.213Z,43.29
2023-04-10T12:28:57.803Z,43.55
2023-04-10T12:30:00.378Z,43.95
2023-04-10T12:31:03.429Z,43.60
2023-04-10T12:32:09.931Z,43.63
2023-04-10T12:33:12.382Z,43.67
2023-04-10T12:34:19.080Z,43.01
2023-04-10T12:35:21.346Z,42.75
2023-04-10T12:36:35.000Z,42.57
2023-04-10T12:37:51.149Z,41.27
2023-04-10T12:38:53.880Z,41.11
2023-04-10T12:40:07.489Z,41.54
2023-04-10T12:41:11.405Z,42.21
2023-04-10T12:42:19.833Z,42.18
2023-04-10T12:43:35.420Z,41.65
2023-04-10T12:44:54.350Z,41.55
2023-04-10T12:45:56.998Z,41.69
2023-04-10T12:47:02.279Z,41.62
2023-04-10T12:48:04.522Z,41.12
2023-04-10T12:49:11.587Z,41.16
2023-04-10T12:50:16.535Z,40.80
2023-04-10T12:51:19.039Z,41.11
2023-04-10T12:52:24.275Z,41.50
2023-04-10T12:53:28.062Z,40.79
2023-04-10T12:54:33.444Z,40.50
2023-04-10T12:55:35.673Z,40.49
2023-04-10T12:56:45.906Z,40.28
2023-04-10T12:57:49.180Z,39.13
2023-04-10T12:59:07.082Z,38.49
2023-04-10T13:00:11.408Z,38.55
2023-04-10T13:01:14.782Z,39.47
2023-04-10T13:02:18.796Z,38.97
2023-04-10T13:03:21.684Z,38.46
2023-04-10T13:04:25.721Z,38.16
2023-04-10T13:05:28.269Z,37.92
2023-04-10T13:06:30.629Z,38.16
2023-04-10T13:07:33.549Z,37.83
2023-04-10T13:08:35.915Z,37.58
2023-04-10T13:09:39.395Z,37.86
2023-04-10T13:10:43.736Z,37.83
2023-04-10T13:11:47.398Z,37.35
2023-04-10T13:12:50.753Z,37.69
2023-04-10T13:13:53.160Z,37.71
2023-04-10T13:14:55.458Z,37.82
2023-04-10T13:15:58.022Z,37.72
2023-04-10T13:17:00.534Z,37.30
2023-04-10T13:18:05.751Z,37.60
2023-04-10T13:19:08.371Z,37.45
2023-04-10T13:20:11.875Z,37.85
2023-04-10T13:21:18.457Z,37.72
2023-04-10T13:22:21.525Z,37.44
2023-04-10T13:23:23.770Z,37.63
2023-04-10T13:24:26.196Z,37.00
2023-04-10T13:25:28.840Z,36.95
2023-04-10T13:26:31.065Z,36.99
2023-04-10T13:27:33.626Z,37.21
2023-04-10T13:28:35.783Z,37.21
2023-04-10T13:29:42.521Z,36.83
2023-04-10T13:30:44.759Z,36.87
2023-04-10T13:31:47.067Z,36.89
2023-04-10T13:32:49.380Z,36.98
2023-04-10T13:33:51.581Z,37.19
2023-04-10T13:34:54.804Z,37.67
2023-04-10T13:35:57.249Z,38.06
2023-04-10T13:37:00.221Z,37.68
2023-04-10T13:38:02.536Z,37.66
2023-04-10T13:39:04.932Z,37.70
2023-04-10T13:40:07.957Z,38.36
2023-04-10T13:41:10.312Z,38.08
2023-04-10T13:42:13.820Z,38.32
2023-04-10T13:43:15.979Z,38.47
2023-04-10T13:44:18.143Z,38.61
2023-04-10T13:45:20.624Z,38.83
2023-04-10T13:46:22.954Z,39.04
2023-04-10T13:47:25.602Z,39.48
2023-04-10T13:48:37.436Z,39.02
2023-04-10T13:49:42.057Z,38.78
2023-04-10T13:50:44.421Z,38.94
2023-04-10T13:51:46.998Z,38.84
2023-04-10T13:52:50.161Z,39.36
2023-04-10T13:53:53.884Z,39.45
2023-04-10T13:54:56.096Z,39.52
2023-04-10T13:55:58.709Z,39.48
2023-04-10T13:57:00.922Z,39.28
2023-04-10T13:58:03.283Z,38.79
2023-04-10T13:59:05.616Z,38.46
2023-04-10T14:00:08.727Z,38.47
2023-04-10T14:01:17.506Z,38.50
2023-04-10T14:02:20.516Z,38.29
2023-04-10T14:03:22.890Z,38.19
2023-04-10T14:04:25.158Z,38.26
2023-04-10T14:05:27.524Z,38.63
2023-04-10T14:06:29.668Z,38.97
2023-04-10T14:07:33.259Z,39.44
2023-04-10T14:08:35.416Z,39.88
2023-04-10T14:09:38.032Z,40.04
2023-04-10T14:10:40.563Z,40.23
2023-04-10T14:11:42.801Z,39.09
2023-04-10T14:12:45.205Z,38.16
2023-04-10T14:13:47.447Z,38.23
2023-04-10T14:14:50.089Z,37.99
2023-04-10T14:15:53.719Z,37.99
2023-04-10T14:16:55.999Z,37.60
2023-04-10T14:17:58.747Z,37.60
2023-04-10T14:19:01.000Z,37.62
2023-04-10T14:20:03.417Z,37.95
2023-04-10T14:21:05.949Z,37.55
2023-04-10T14:22:08.139Z,37.78
2023-04-10T14:23:17.036Z,38.21